createdAt,value
2024-01-20T00:00:58.814Z,45.97
2024-01-20T00:03:27.321Z,53.30
2024-01-20T00:05:56.285Z,40.38
2024-01-20T00:08:25.254Z,45.33
2024-01-20T00:10:55.295Z,47.47
2024-01-20T00:13:23.727Z,49.50
2024-01-20T00:15:52.496Z,42.90
2024-01-20T00:18:21.617Z,49.20
2024-01-20T00:20:50.136Z,50.10
2024-01-20T00:23:19.677Z,46.38
2024-01-20T00:25:48.281Z,49.08
2024-01-20T00:28:19.277Z,51.67
2024-01-20T00:30:48.286Z,46.60
2024-01-20T00:33:16.980Z,52.75
2024-01-20T00:35:45.952Z,44.40
2024-01-20T00:38:14.639Z,48.90
2024-01-20T00:40:43.551Z,50.30
2024-01-20T00:43:12.129Z,49.97
2024-01-20T00:45:41.898Z,56.38
2024-01-20T00:48:10.528Z,58.22
2024-01-20T00:50:38.899Z,47.47
2024-01-20T00:53:07.658Z,52.55
2024-01-20T00:55:36.155Z,47.35
2024-01-20T00:58:05.195Z,54.80
2024-01-20T01:00:33.759Z,54.45
2024-01-20T01:03:04.019Z,53.13
2024-01-20T01:05:32.869Z,59.65
2024-01-20T01:08:01.336Z,58.72
2024-01-20T01:10:29.985Z,57.35
2024-01-20T01:12:59.122Z,51.33
2024-01-20T01:15:29.296Z,56.97
2024-01-20T01:17:57.853Z,51.60
2024-01-20T01:20:28.162Z,49.80
2024-01-20T01:22:56.682Z,49.45
2024-01-20T01:25:25.128Z,46.47
2024-01-20T01:27:53.569Z,55.78
2024-01-20T01:30:22.112Z,51.63
2024-01-20T01:32:50.894Z,52.78
2024-01-20T01:35:18.956Z,47.63
2024-01-20T01:37:49.027Z,52.53
2024-01-20T01:40:17.468Z,51.30
2024-01-20T01:42:45.880Z,54.72
2024-01-20T01:45:14.398Z,60.90
2024-01-20T01:47:42.965Z,50.92
2024-01-20T01:50:11.876Z,50.00
2024-01-20T01:52:41.133Z,48.65
2024-01-20T01:55:12.570Z,45.65
2024-01-20T01:57:41.511Z,49.17
2024-01-20T02:00:11.100Z,56.25
2024-01-20T02:02:39.611Z,53.25
2024-01-20T02:05:08.173Z,50.67
2024-01-20T02:07:37.744Z,56.88
2024-01-20T02:10:10.939Z,51.70
2024-01-20T02:12:41.672Z,53.88
2024-01-20T02:15:13.556Z,51.63
2024-01-20T02:17:52.790Z,52.30
2024-01-20T02:20:21.697Z,48.97
2024-01-20T02:22:52.184Z,48.28
2024-01-20T02:25:20.802Z,56.50
2024-01-20T02:27:49.118Z,47.67
2024-01-20T02:30:17.761Z,54.63
2024-01-20T02:32:46.394Z,50.78
2024-01-20T02:35:17.382Z,50.53
2024-01-20T02:37:45.902Z,49.25
2024-01-20T02:40:15.827Z,49.00
2024-01-20T02:42:44.257Z,45.70
2024-01-20T02:45:12.829Z,49.10
2024-01-20T02:47:41.454Z,45.97
2024-01-20T02:50:11.034Z,43.08
2024-01-20T02:52:39.569Z,52.50
2024-01-20T02:55:08.926Z,45.88
2024-01-20T02:57:38.833Z,47.08
2024-01-20T03:00:09.777Z,47.80
2024-01-20T03:02:38.327Z,41.63
2024-01-20T03:05:08.155Z,50.13
2024-01-20T03:07:36.558Z,39.33
2024-01-20T03:10:05.607Z,48.88
2024-01-20T03:12:34.102Z,38.72
2024-01-20T03:15:04.192Z,45.30
2024-01-20T03:17:32.745Z,41.47
2024-01-20T03:20:01.241Z,44.83
2024-01-20T03:22:29.904Z,44.50
2024-01-20T03:24:58.697Z,41.53
2024-01-20T03:27:27.057Z,41.40
2024-01-20T03:29:55.589Z,49.53
2024-01-20T03:32:25.630Z,48.15
2024-01-20T03:34:53.983Z,41.08
2024-01-20T03:37:22.609Z,45.13
2024-01-20T03:39:51.025Z,36.22
2024-01-20T03:42:20.089Z,44.88
2024-01-20T03:44:48.541Z,38.55
2024-01-20T03:47:17.049Z,46.50
2024-01-20T03:49:46.914Z,48.58
2024-01-20T03:52:15.555Z,43.17
2024-01-20T03:54:44.549Z,50.50
2024-01-20T03:57:13.192Z,46.28
2024-01-20T03:59:41.638Z,39.95
2024-01-20T04:02:10.290Z,46.97
2024-01-20T04:04:39.412Z,43.35
2024-01-20T04:07:11.272Z,41.25
2024-01-20T04:09:39.881Z,48.45
2024-01-20T04:12:09.426Z,38.17
2024-01-20T04:14:38.082Z,46.97
2024-01-20T04:17:07.198Z,44.53
2024-01-20T04:19:35.618Z,45.80
2024-01-20T04:22:04.210Z,45.63
2024-01-20T04:24:33.987Z,47.15
2024-01-20T04:27:02.491Z,42.75
2024-01-20T04:29:31.092Z,37.88
2024-01-20T04:31:59.585Z,45.53
2024-01-20T04:34:28.018Z,45.83
2024-01-20T04:36:56.389Z,42.10
2024-01-20T04:39:24.773Z,47.17
2024-01-20T04:41:54.612Z,40.53
2024-01-20T04:44:23.837Z,47.72
2024-01-20T04:46:52.280Z,43.92
2024-01-20T04:49:20.658Z,53.95
2024-01-20T04:51:49.172Z,44.28
2024-01-20T04:54:17.644Z,40.30
2024-01-20T04:56:45.999Z,42.85
2024-01-20T04:59:15.926Z,48.00
2024-01-20T05:01:44.239Z,43.85
2024-01-20T05:04:12.794Z,43.58
2024-01-20T05:06:41.514Z,41.13
2024-01-20T05:09:10.000Z,38.60
2024-01-20T05:11:38.462Z,38.15
2024-01-20T05:14:07.120Z,35.63
2024-01-20T05:16:37.171Z,44.28
2024-01-20T05:19:06.079Z,41.53
2024-01-20T05:21:35.074Z,39.55
2024-01-20T05:24:03.569Z,43.35
2024-01-20T05:26:33.528Z,41.45
2024-01-20T05:29:02.346Z,42.78
2024-01-20T05:31:33.077Z,45.33
2024-01-20T05:34:03.320Z,36.40
2024-01-20T05:36:32.101Z,38.88
2024-01-20T05:39:00.590Z,38.03
2024-01-20T05:41:29.025Z,36.50
2024-01-20T05:43:57.509Z,38.42
2024-01-20T05:46:25.927Z,42.13
2024-01-20T05:48:54.408Z,37.38
2024-01-20T05:51:24.325Z,43.58
2024-01-20T05:53:53.257Z,36.15
2024-01-20T05:56:22.594Z,38.45
2024-01-20T05:58:51.234Z,36.30
2024-01-20T06:01:22.618Z,34.78
2024-01-20T06:03:51.167Z,40.65
2024-01-20T06:06:20.084Z,31.17
2024-01-20T06:08:50.113Z,38.92
2024-01-20T06:11:18.595Z,40.45
2024-01-20T06:13:47.033Z,38.40
2024-01-20T06:16:15.477Z,37.70
2024-01-20T06:18:43.869Z,43.03
2024-01-20T06:21:12.300Z,36.42
2024-01-20T06:23:40.674Z,37.85
2024-01-20T06:26:10.641Z,36.45
2024-01-20T06:28:38.979Z,34.70
2024-01-20T06:31:07.626Z,32.70
2024-01-20T06:33:36.172Z,35.65
2024-01-20T06:36:05.268Z,38.88
2024-01-20T06:38:33.841Z,34.58
2024-01-20T06:41:02.261Z,33.85
2024-01-20T06:43:32.196Z,37.10
2024-01-20T06:46:02.231Z,40.67
2024-01-20T06:48:34.067Z,41.75
2024-01-20T06:51:03.001Z,37.10
2024-01-20T06:53:32.984Z,40.33
2024-01-20T06:56:01.599Z,38.33
2024-01-20T06:58:31.546Z,37.35
2024-01-20T07:01:00.072Z,34.45
2024-01-20T07:03:28.614Z,36.67
2024-01-20T07:05:57.253Z,39.97
2024-01-20T07:08:25.885Z,40.22
2024-01-20T07:10:54.300Z,35.53
2024-01-20T07:13:23.018Z,43.75
2024-01-20T07:15:53.005Z,36.88
2024-01-20T07:18:21.482Z,37.03
2024-01-20T07:20:49.951Z,38.90
2024-01-20T07:23:18.558Z,41.45
2024-01-20T07:25:46.955Z,41.22
2024-01-20T07:28:19.224Z,40.42
2024-01-20T07:30:47.696Z,43.30
2024-01-20T07:33:17.790Z,41.50
2024-01-20T07:35:46.273Z,43.97
2024-01-20T07:38:15.681Z,44.13
2024-01-20T07:40:44.244Z,46.85
2024-01-20T07:43:12.669Z,47.88
2024-01-20T07:45:41.709Z,43.13
2024-01-20T07:48:23.501Z,44.78
2024-01-20T07:50:52.724Z,45.00
2024-01-20T07:53:21.388Z,46.50
2024-01-20T07:55:49.918Z,50.92
2024-01-20T07:58:18.404Z,48.40
2024-01-20T08:00:47.094Z,42.83
2024-01-20T08:03:15.753Z,45.20
2024-01-20T08:05:47.038Z,42.65
2024-01-20T08:08:15.709Z,37.88
2024-01-20T08:10:44.324Z,41.08
2024-01-20T08:13:12.873Z,39.22
2024-01-20T08:15:41.515Z,47.22
2024-01-20T08:18:10.233Z,41.08
2024-01-20T08:20:38.827Z,42.03
2024-01-20T08:23:08.974Z,39.50
2024-01-20T08:25:37.579Z,42.72
2024-01-20T08:28:06.497Z,40.72
2024-01-20T08:30:35.601Z,45.42
2024-01-20T08:33:05.423Z,45.90
2024-01-20T08:35:36.025Z,45.40
2024-01-20T08:38:04.851Z,51.42
2024-01-20T08:40:34.900Z,48.33
2024-01-20T08:43:03.368Z,48.47
2024-01-20T08:45:31.883Z,43.67
2024-01-20T08:48:00.514Z,43.40
2024-01-20T08:50:29.105Z,45.10
2024-01-20T08:52:57.511Z,41.42
2024-01-20T08:55:26.028Z,43.15
2024-01-20T08:57:58.066Z,36.95
2024-01-20T09:00:26.584Z,41.42
2024-01-20T09:02:55.274Z,43.92
2024-01-20T09:05:23.816Z,45.95
2024-01-20T09:07:52.612Z,40.92
2024-01-20T09:10:21.064Z,42.15
2024-01-20T09:12:50.191Z,44.65
2024-01-20T09:15:20.224Z,43.38
2024-01-20T09:17:49.043Z,43.60
2024-01-20T09:20:18.683Z,45.42
2024-01-20T09:22:48.406Z,36.38
2024-01-20T09:25:17.288Z,36.97
2024-01-20T09:27:46.311Z,41.60
2024-01-20T09:30:15.940Z,36.00
2024-01-20T09:32:46.399Z,39.83
2024-01-20T09:35:15.081Z,43.47
2024-01-20T09:37:43.643Z,40.03
2024-01-20T09:40:13.712Z,42.78
2024-01-20T09:42:42.647Z,37.00
2024-01-20T09:45:11.852Z,39.13
2024-01-20T09:47:40.569Z,39.55
2024-01-20T09:50:12.469Z,42.28
2024-01-20T09:52:54.705Z,36.83
2024-01-20T09:55:25.284Z,38.70
2024-01-20T09:57:55.178Z,40.80
2024-01-20T10:00:25.592Z,39.10
2024-01-20T10:02:54.910Z,41.60
2024-01-20T10:05:26.972Z,42.72
2024-01-20T10:07:55.710Z,39.15
2024-01-20T10:10:24.426Z,40.78
2024-01-20T10:12:53.589Z,43.85
2024-01-20T10:15:24.187Z,35.63
2024-01-20T10:17:53.017Z,34.53
2024-01-20T10:20:24.925Z,33.17
2024-01-20T10:22:54.405Z,30.75
2024-01-20T10:25:22.992Z,35.83
2024-01-20T10:27:52.949Z,40.60
2024-01-20T10:30:23.059Z,36.20
2024-01-20T10:35:25.463Z,31.52
2024-01-20T10:37:56.448Z,38.05
2024-01-20T10:40:24.959Z,31.13
2024-01-20T10:42:57.753Z,35.45
2024-01-20T10:45:27.818Z,34.20
2024-01-20T10:48:10.865Z,31.92
2024-01-20T10:50:47.549Z,35.53
2024-01-20T10:53:16.903Z,32.80
2024-01-20T10:55:47.834Z,34.97
2024-01-20T10:58:22.048Z,37.60
2024-01-20T11:00:51.839Z,34.97
2024-01-20T11:03:20.583Z,33.63
2024-01-20T11:05:50.590Z,35.63
2024-01-20T11:08:26.473Z,35.08
2024-01-20T11:10:56.751Z,37.47
2024-01-20T11:13:29.308Z,40.10
2024-01-20T11:15:59.352Z,37.40
2024-01-20T11:18:31.366Z,32.50
2024-01-20T11:21:03.285Z,43.15
2024-01-20T11:23:32.626Z,29.65
2024-01-20T11:26:12.640Z,32.63
2024-01-20T11:28:45.481Z,35.83
2024-01-20T11:31:21.363Z,33.03
2024-01-20T11:33:50.610Z,32.50
2024-01-20T11:36:20.644Z,37.72
2024-01-20T11:38:51.977Z,27.00
2024-01-20T11:41:21.082Z,29.50
2024-01-20T11:43:50.100Z,30.55
2024-01-20T11:46:19.945Z,30.77
2024-01-20T11:48:50.006Z,31.90
2024-01-20T11:51:23.340Z,32.00
2024-01-20T11:53:53.180Z,35.75
2024-01-20T11:56:22.170Z,38.88
2024-01-20T11:58:51.441Z,36.72
2024-01-20T12:01:20.740Z,35.13
2024-01-20T12:03:50.243Z,31.27
2024-01-20T12:06:21.342Z,35.22
2024-01-20T12:08:50.862Z,41.05
2024-01-20T12:11:21.433Z,38.15
2024-01-20T12:13:50.876Z,34.47
2024-01-20T12:16:21.488Z,38.22
2024-01-20T12:18:51.032Z,36.47
2024-01-20T12:21:22.116Z,40.35
2024-01-20T12:23:51.740Z,39.88
2024-01-20T12:26:21.470Z,38.55
2024-01-20T12:28:52.824Z,44.83
2024-01-20T12:31:23.272Z,40.20
2024-01-20T12:33:52.502Z,43.72
2024-01-20T12:36:23.119Z,39.80
2024-01-20T12:38:54.881Z,36.35
2024-01-20T12:41:24.296Z,38.88
2024-01-20T12:43:54.122Z,38.17
2024-01-20T12:46:25.435Z,35.97
2024-01-20T12:48:54.465Z,38.55
2024-01-20T12:51:27.843Z,36.85
2024-01-20T12:54:00.837Z,37.13
2024-01-20T12:56:37.688Z,37.63
2024-01-20T12:59:09.531Z,35.38
2024-01-20T13:01:40.870Z,35.08
2024-01-20T13:04:10.521Z,38.22
2024-01-20T13:06:41.391Z,32.08
2024-01-20T13:09:11.672Z,33.08
2024-01-20T13:11:41.366Z,32.63
2024-01-20T13:14:10.776Z,36.17
2024-01-20T13:16:39.782Z,34.25
2024-01-20T13:19:09.157Z,37.50
2024-01-20T13:21:39.914Z,35.45
2024-01-20T13:24:09.590Z,32.15
2024-01-20T13:26:38.529Z,31.85
2024-01-20T13:29:07.966Z,37.08
2024-01-20T13:31:37.077Z,35.00
2024-01-20T13:34:09.853Z,34.13
2024-01-20T13:36:40.330Z,41.08
2024-01-20T13:39:09.749Z,54.65
2024-01-20T13:41:38.674Z,65.30
2024-01-20T13:44:07.766Z,64.43
2024-01-20T13:46:39.693Z,63.22
2024-01-20T13:49:10.919Z,55.72
2024-01-20T13:51:43.397Z,50.15
2024-01-20T13:54:12.617Z,41.70
2024-01-20T13:56:41.550Z,36.92
2024-01-20T13:59:10.856Z,42.28
2024-01-20T14:01:39.993Z,39.47
2024-01-20T14:04:08.998Z,39.90
2024-01-20T14:06:38.972Z,37.83
2024-01-20T14:09:11.349Z,44.30
2024-01-20T14:11:40.584Z,50.35
2024-01-20T14:14:09.463Z,53.38
2024-01-20T14:16:38.494Z,54.90
2024-01-20T14:19:09.107Z,58.83
2024-01-20T14:21:38.758Z,59.45
2024-01-20T14:24:09.505Z,64.13
2024-01-20T14:26:38.442Z,62.90
2024-01-20T14:29:10.176Z,60.88
2024-01-20T14:31:48.781Z,47.78
2024-01-20T14:34:18.157Z,46.97
2024-01-20T14:36:50.249Z,44.88
2024-01-20T14:39:20.976Z,44.70
2024-01-20T14:41:50.120Z,50.15
2024-01-20T14:44:19.243Z,43.20
2024-01-20T14:46:48.894Z,40.75
2024-01-20T14:49:17.973Z,36.60
2024-01-20T14:51:47.378Z,33.17
2024-01-20T14:54:16.897Z,31.85
2024-01-20T14:56:47.661Z,31.58
2024-01-20T14:59:16.978Z,28.15
2024-01-20T15:01:49.780Z,28.58
2024-01-20T15:04:37.960Z,26.95
2024-01-20T15:07:07.098Z,24.98
2024-01-20T15:09:37.520Z,26.13
2024-01-20T15:12:10.205Z,27.42
2024-01-20T15:14:38.915Z,22.83
2024-01-20T15:17:07.621Z,26.40
2024-01-20T15:19:39.671Z,24.02
2024-01-20T15:22:08.768Z,24.13
2024-01-20T15:24:37.540Z,25.95
2024-01-20T15:27:07.969Z,23.65
2024-01-20T15:29:37.022Z,21.95
2024-01-20T15:32:12.069Z,29.02
2024-01-20T15:34:40.586Z,26.02
2024-01-20T15:37:10.176Z,23.02
2024-01-20T15:39:48.706Z,24.17
2024-01-20T15:42:19.620Z,23.40
2024-01-20T15:44:48.657Z,25.17
2024-01-20T15:47:20.053Z,23.55
2024-01-20T15:49:49.335Z,23.83
2024-01-20T15:52:19.359Z,23.13
2024-01-20T15:54:49.419Z,25.23
2024-01-20T15:57:19.883Z,24.08
2024-01-20T15:59:49.671Z,20.33
2024-01-20T16:02:18.983Z,29.70
2024-01-20T16:04:47.997Z,26.73
2024-01-20T16:07:17.591Z,20.60
2024-01-20T16:09:46.698Z,22.90
2024-01-20T16:12:15.828Z,29.63
2024-01-20T16:14:46.301Z,22.17
2024-01-20T16:17:15.345Z,25.70
2024-01-20T16:19:44.193Z,24.02
2024-01-20T16:22:14.762Z,23.58
2024-01-20T16:24:43.666Z,21.50
2024-01-20T16:27:34.153Z,24.80
2024-01-20T16:30:59.287Z,24.77
2024-01-20T16:33:43.207Z,38.92
2024-01-20T16:36:20.255Z,27.48
2024-01-20T16:38:59.911Z,27.83
2024-01-20T16:41:29.506Z,26.42
2024-01-20T16:43:59.557Z,24.25
2024-01-20T16:46:32.544Z,27.52
2024-01-20T16:49:04.636Z,23.05
2024-01-20T16:51:38.140Z,23.85
2024-01-20T16:54:07.423Z,28.30
2024-01-20T16:56:36.089Z,23.38
2024-01-20T16:59:06.045Z,20.00
2024-01-20T17:01:41.970Z,23.52
2024-01-20T17:04:13.228Z,18.40
2024-01-20T17:06:42.167Z,24.45
2024-01-20T17:09:11.679Z,22.40
2024-01-20T17:11:40.603Z,22.35
2024-01-20T17:14:09.910Z,29.25
2024-01-20T17:16:38.444Z,25.13
2024-01-20T17:19:07.238Z,24.95
2024-01-20T17:21:37.203Z,24.98
2024-01-20T17:24:06.882Z,24.00
2024-01-20T17:26:35.453Z,27.42
2024-01-20T17:29:03.924Z,21.65
2024-01-20T17:31:34.745Z,20.95
2024-01-20T17:34:04.947Z,27.50
2024-01-20T17:36:33.675Z,28.63
2024-01-20T17:39:05.174Z,26.83
2024-01-20T17:41:34.182Z,29.98
2024-01-20T17:44:02.681Z,46.00
2024-01-20T17:46:31.273Z,34.90
2024-01-20T17:48:59.901Z,34.13
2024-01-20T17:51:28.848Z,25.02
2024-01-20T17:54:03.025Z,23.35
2024-01-20T17:56:32.049Z,27.85
2024-01-20T17:59:01.082Z,27.00
2024-01-20T18:01:30.209Z,31.05
2024-01-20T18:04:02.596Z,30.77
2024-01-20T18:06:32.156Z,21.50
2024-01-20T18:09:05.218Z,25.13
2024-01-20T18:11:38.832Z,20.48
2024-01-20T18:14:13.518Z,32.83
2024-01-20T18:16:43.460Z,22.60
2024-01-20T18:19:13.148Z,20.27
2024-01-20T18:21:42.146Z,22.52
2024-01-20T18:24:12.425Z,17.58
2024-01-20T18:26:40.990Z,22.92
2024-01-20T18:29:09.716Z,23.25
2024-01-20T18:31:38.365Z,20.17
2024-01-20T18:34:07.640Z,22.20
2024-01-20T18:36:36.325Z,22.70
2024-01-20T18:39:05.541Z,24.38
2024-01-20T18:41:35.899Z,37.60
2024-01-20T18:44:05.522Z,33.45
2024-01-20T18:46:34.093Z,37.30
2024-01-20T18:49:03.034Z,23.23
2024-01-20T18:51:31.904Z,24.00
2024-01-20T18:54:00.834Z,19.67
2024-01-20T18:56:29.936Z,20.25
2024-01-20T18:59:01.974Z,17.10
2024-01-20T19:01:34.102Z,16.35
2024-01-20T19:04:06.234Z,20.80
2024-01-20T19:06:35.343Z,21.60
2024-01-20T19:09:05.173Z,21.88
2024-01-20T19:11:33.833Z,18.20
2024-01-20T19:14:05.242Z,18.98
2024-01-20T19:16:34.240Z,21.30
2024-01-20T19:19:04.498Z,21.35
2024-01-20T19:21:33.812Z,21.83
2024-01-20T19:24:04.498Z,23.35
2024-01-20T19:26:34.552Z,23.10
2024-01-20T19:29:08.708Z,21.67
2024-01-20T19:31:37.933Z,22.80
2024-01-20T19:34:11.897Z,23.45
2024-01-20T19:36:42.163Z,21.98
2024-01-20T19:39:12.015Z,20.92
2024-01-20T19:41:41.201Z,24.33
2024-01-20T19:44:15.381Z,23.75
2024-01-20T19:46:44.559Z,23.58
2024-01-20T19:49:13.231Z,22.23
2024-01-20T19:51:42.174Z,22.00
2024-01-20T19:54:15.590Z,25.65
2024-01-20T19:56:45.360Z,22.75
2024-01-20T19:59:17.943Z,24.27
2024-01-20T20:01:47.974Z,22.60
2024-01-20T20:04:18.294Z,19.65
2024-01-20T20:06:47.419Z,28.90
2024-01-20T20:09:16.422Z,23.40
2024-01-20T20:11:45.004Z,24.95
2024-01-20T20:14:21.526Z,21.73
2024-01-20T20:16:50.104Z,29.10
2024-01-20T20:19:18.852Z,44.47
2024-01-20T20:21:47.546Z,24.00
2024-01-20T20:24:16.450Z,21.20
2024-01-20T20:26:45.319Z,24.10
2024-01-20T20:29:15.929Z,24.73
2024-01-20T20:31:45.375Z,28.17
2024-01-20T20:34:14.349Z,21.52
2024-01-20T20:36:43.035Z,22.08
2024-01-20T20:39:11.593Z,22.83
2024-01-20T20:41:40.302Z,25.60
2024-01-20T20:44:09.907Z,24.35
2024-01-20T20:46:39.874Z,23.20
2024-01-20T20:49:09.322Z,25.00
2024-01-20T20:51:38.219Z,26.60
2024-01-20T20:54:07.548Z,25.23
2024-01-20T20:56:36.102Z,26.83
2024-01-20T20:59:04.850Z,25.63
2024-01-20T21:01:33.624Z,30.95
2024-01-20T21:04:07.183Z,27.45
2024-01-20T21:06:36.259Z,26.52
2024-01-20T21:09:05.368Z,26.40
2024-01-20T21:11:33.905Z,29.67
2024-01-20T21:14:02.416Z,31.02
2024-01-20T21:16:31.210Z,26.90
2024-01-20T21:19:00.465Z,28.45
2024-01-20T21:21:30.555Z,24.75
2024-01-20T21:23:59.114Z,28.50
2024-01-20T21:26:27.517Z,26.65
2024-01-20T21:28:56.056Z,27.45
2024-01-20T21:31:24.450Z,29.52
2024-01-20T21:33:53.262Z,28.00
2024-01-20T21:36:24.017Z,27.50
2024-01-20T21:38:54.510Z,22.75
2024-01-20T21:41:22.941Z,29.83
2024-01-20T21:43:52.044Z,26.20
2024-01-20T21:46:21.207Z,24.77
2024-01-20T21:48:49.825Z,22.67
2024-01-20T21:51:18.657Z,24.63
2024-01-20T21:53:47.088Z,30.92
2024-01-20T21:56:17.762Z,24.05
2024-01-20T21:58:46.435Z,23.67
2024-01-20T22:01:15.306Z,26.98
2024-01-20T22:03:44.027Z,25.80
2024-01-20T22:06:12.526Z,20.95
2024-01-20T22:08:40.956Z,27.13
2024-01-20T22:11:09.326Z,26.17
2024-01-20T22:13:39.925Z,24.90
2024-01-20T22:16:09.128Z,20.35
2024-01-20T22:18:37.700Z,21.40
2024-01-20T22:21:11.930Z,20.50
2024-01-20T22:23:40.654Z,23.63
2024-01-20T22:26:09.043Z,21.20
2024-01-20T22:28:39.205Z,24.05
2024-01-20T22:31:07.695Z,24.38
2024-01-20T22:33:36.459Z,21.63
2024-01-20T22:36:05.723Z,20.27
2024-01-20T22:38:34.077Z,21.35
2024-01-20T22:41:02.704Z,18.30
2024-01-20T22:43:32.405Z,18.58
2024-01-20T22:46:02.251Z,18.90
2024-01-20T22:48:36.663Z,17.10
2024-01-20T22:51:06.349Z,24.55
2024-01-20T22:53:34.757Z,19.13
2024-01-20T22:56:11.960Z,17.38
2024-01-20T22:58:40.832Z,18.33
2024-01-20T23:01:10.955Z,19.70
2024-01-20T23:03:39.599Z,21.58
2024-01-20T23:06:09.822Z,19.77
2024-01-20T23:08:44.011Z,20.50
2024-01-20T23:11:18.242Z,19.50
2024-01-20T23:13:56.193Z,15.65
2024-01-20T23:16:26.038Z,17.25
2024-01-20T23:18:57.910Z,15.20
2024-01-20T23:21:27.060Z,16.63
2024-01-20T23:23:55.804Z,16.17
2024-01-20T23:26:24.554Z,15.00
2024-01-20T23:28:55.074Z,15.80
2024-01-20T23:31:24.207Z,15.70
2024-01-20T23:33:58.164Z,14.18
2024-01-20T23:36:26.872Z,13.98
2024-01-20T23:38:55.397Z,12.75
2024-01-20T23:41:27.785Z,12.75
2024-01-20T23:43:56.474Z,10.63
2024-01-20T23:46:24.977Z,15.70
2024-01-20T23:48:55.562Z,12.45
2024-01-20T23:51:24.428Z,13.05
2024-01-20T23:53:53.077Z,17.20
2024-01-20T23:56:21.733Z,11.27
2024-01-20T23:58:50.192Z,12.43
